Time;durP1;ratioP1;P1;durP2;ratioP2;P2;SDS_P1;SDS_P2;PMS_P1;PMS_P2;Temp;Humidity;BMP_temperature;BMP_pressure;BME280_temperature;BME280_humidity;BME280_pressure;Samples;Min_cycle;Max_cycle;Signal;HPM_P1;HPM_P2
2022/02/26 00:03:33;;;;;;;29.90;3.92;;;2.70;99.90;;;;;;12497683;28;20161;-40
2022/02/26 00:09:36;;;;;;;25.38;3.10;;;2.80;99.90;;;;;;12482790;28;20045;-37
2022/02/26 00:15:39;;;;;;;27.85;4.75;;;2.80;99.90;;;;;;12501116;28;20049;-41
2022/02/26 00:21:41;;;;;;;20.35;2.92;;;2.70;99.90;;;;;;12496262;28;20045;-40
2022/02/26 00:27:43;;;;;;;21.40;2.92;;;2.70;99.90;;;;;;12499265;28;20500;-37
2022/02/26 00:33:46;;;;;;;21.92;3.10;;;2.60;99.90;;;;;;12496564;28;20052;-37
2022/02/26 00:39:48;;;;;;;21.90;3.53;;;2.60;99.90;;;;;;12499835;28;20458;-40
2022/02/26 00:45:50;;;;;;;21.52;3.13;;;2.60;99.90;;;;;;12497803;28;20452;-42
2022/02/26 00:51:52;;;;;;;19.70;3.03;;;2.60;99.90;;;;;;12494903;28;20540;-37
2022/02/26 00:57:54;;;;;;;24.70;4.20;;;2.70;99.90;;;;;;12494041;28;20045;-37
2022/02/26 01:03:56;;;;;;;25.67;2.67;;;2.70;99.90;;;;;;12481156;28;20795;-37
2022/02/26 01:09:58;;;;;;;24.65;2.70;;;2.60;99.90;;;;;;12504244;28;20118;-38
2022/02/26 01:16:00;;;;;;;25.60;3.95;;;2.50;99.90;;;;;;12486933;28;20040;-38
2022/02/26 01:22:04;;;;;;;22.85;2.92;;;2.50;99.90;;;;;;12506795;28;20052;-37
2022/02/26 01:28:06;;;;;;;22.42;3.33;;;2.30;99.90;;;;;;12510070;28;20049;-40
2022/02/26 01:34:09;;;;;;;22.40;3.28;;;2.30;99.90;;;;;;12508197;28;20049;-37
2022/02/26 01:40:12;;;;;;;19.02;2.85;;;2.40;99.90;;;;;;12508112;28;20056;-37
2022/02/26 01:46:14;;;;;;;21.48;2.88;;;2.40;99.90;;;;;;12509924;28;20103;-41
2022/02/26 01:52:21;;;;;;;20.25;2.88;;;2.40;99.90;;;;;;12505928;28;20079;-40
2022/02/26 01:58:29;;;;;;;26.92;2.85;;;2.50;99.90;;;;;;12509079;28;20417;-41
2022/02/26 02:04:32;;;;;;;25.77;4.20;;;2.50;99.90;;;;;;12505005;28;20420;-40
2022/02/26 02:10:38;;;;;;;27.60;3.30;;;2.40;99.90;;;;;;12506123;28;20060;-40
2022/02/26 02:16:39;;;;;;;24.38;4.28;;;2.30;99.90;;;;;;12509947;28;20114;-37
2022/02/26 02:22:44;;;;;;;22.30;3.35;;;2.20;99.90;;;;;;12506564;28;20088;-37
2022/02/26 02:28:48;;;;;;;22.50;2.92;;;2.20;99.90;;;;;;12511466;28;20061;-40
2022/02/26 02:34:50;;;;;;;21.60;2.60;;;2.00;99.90;;;;;;12487570;28;20140;-40
2022/02/26 02:40:52;;;;;;;18.00;2.47;;;1.90;99.90;;;;;;12507606;28;20523;-40
2022/02/26 02:46:54;;;;;;;25.05;3.20;;;1.90;99.90;;;;;;12502300;28;20054;-40
2022/02/26 02:52:56;;;;;;;31.75;3.63;;;1.70;99.90;;;;;;12501239;28;20053;-43
2022/02/26 02:58:58;;;;;;;49.15;5.53;;;1.70;99.90;;;;;;12504674;28;20083;-36
2022/02/26 03:05:00;;;;;;;22.23;3.65;;;1.50;99.90;;;;;;12498904;28;20056;-42
2022/02/26 03:11:02;;;;;;;23.88;5.78;;;1.40;99.90;;;;;;12501120;28;20076;-39
2022/02/26 03:17:05;;;;;;;23.23;3.15;;;1.30;99.90;;;;;;12502208;28;20094;-37
2022/02/26 03:23:07;;;;;;;29.75;3.97;;;1.40;99.90;;;;;;12503269;28;20041;-37
2022/02/26 03:29:10;;;;;;;21.70;2.97;;;1.30;99.90;;;;;;12503187;28;20061;-37
2022/02/26 03:35:12;;;;;;;15.43;2.60;;;1.30;99.90;;;;;;12500032;28;20451;-37
2022/02/26 03:41:14;;;;;;;38.78;5.45;;;1.30;99.90;;;;;;12500865;28;20132;-38
2022/02/26 03:47:17;;;;;;;27.45;3.13;;;1.40;99.90;;;;;;12504633;28;20080;-37
2022/02/26 03:53:19;;;;;;;23.52;2.70;;;1.40;99.90;;;;;;12503914;28;20736;-41
2022/02/26 03:59:21;;;;;;;20.33;2.65;;;1.40;99.90;;;;;;12504809;28;20522;-41
2022/02/26 04:05:24;;;;;;;30.13;4.75;;;1.40;99.90;;;;;;12503250;28;20077;-41
2022/02/26 04:11:26;;;;;;;25.65;4.70;;;1.30;99.90;;;;;;12499701;28;20048;-37
2022/02/26 04:17:28;;;;;;;24.42;3.25;;;1.20;99.90;;;;;;12503565;28;20053;-37
2022/02/26 04:23:30;;;;;;;18.65;3.30;;;1.20;99.90;;;;;;12502821;28;20797;-37
2022/02/26 04:29:32;;;;;;;24.95;2.67;;;1.20;99.90;;;;;;12502593;28;20559;-41
2022/02/26 04:35:36;;;;;;;27.45;4.70;;;1.20;99.90;;;;;;12502550;28;20140;-38
2022/02/26 04:41:38;;;;;;;21.63;2.92;;;1.20;99.90;;;;;;12501176;28;20045;-41
2022/02/26 04:47:41;;;;;;;20.70;2.97;;;1.20;99.90;;;;;;12485994;28;20720;-40
2022/02/26 04:53:43;;;;;;;26.92;2.67;;;1.10;99.90;;;;;;12500926;28;20091;-41
2022/02/26 04:59:45;;;;;;;17.73;2.28;;;1.10;99.90;;;;;;12499648;28;20057;-41
2022/02/26 05:05:48;;;;;;;25.30;2.92;;;1.10;99.90;;;;;;12495912;28;20053;-37
2022/02/26 05:11:50;;;;;;;26.38;4.47;;;1.00;99.90;;;;;;12497465;28;20468;-41
2022/02/26 05:17:52;;;;;;;25.00;2.65;;;1.00;99.90;;;;;;12498004;28;20494;-42
2022/02/26 05:23:54;;;;;;;28.67;3.67;;;0.90;99.90;;;;;;12496317;28;20505;-37
2022/02/26 05:29:56;;;;;;;37.95;3.00;;;1.00;99.90;;;;;;12497426;28;20045;-37
2022/02/26 05:35:58;;;;;;;24.58;3.63;;;1.00;99.90;;;;;;12494786;28;20464;-37
2022/02/26 05:42:01;;;;;;;23.17;3.28;;;1.00;99.90;;;;;;12497564;28;20069;-43
2022/02/26 05:48:03;;;;;;;27.65;3.42;;;1.10;99.90;;;;;;12501115;28;20064;-36
2022/02/26 05:54:05;;;;;;;22.17;3.15;;;1.10;99.90;;;;;;12504592;28;20056;-40
2022/02/26 06:00:09;;;;;;;22.77;2.90;;;1.10;99.90;;;;;;12504821;28;20049;-37
2022/02/26 06:06:11;;;;;;;23.33;3.00;;;1.00;99.90;;;;;;12510781;28;20138;-37
2022/02/26 06:12:13;;;;;;;41.25;4.90;;;1.00;99.90;;;;;;12504351;28;20516;-37
2022/02/26 06:18:15;;;;;;;27.30;2.95;;;1.00;99.90;;;;;;12509373;28;20081;-38
2022/02/26 06:24:17;;;;;;;28.60;3.72;;;0.90;99.90;;;;;;12508855;28;20091;-37
2022/02/26 06:30:21;;;;;;;22.98;3.33;;;0.90;99.90;;;;;;12554956;28;20052;-37
2022/02/26 06:36:23;;;;;;;22.90;3.67;;;0.90;99.90;;;;;;12554295;28;20428;-37
2022/02/26 06:42:25;;;;;;;28.13;3.35;;;0.90;99.90;;;;;;12551560;28;20056;-37
2022/02/26 06:48:28;;;;;;;28.35;3.97;;;1.00;99.90;;;;;;12558491;28;20445;-37
2022/02/26 06:54:30;;;;;;;21.00;3.28;;;1.10;99.90;;;;;;12557080;28;20149;-40
2022/02/26 07:00:33;;;;;;;19.90;3.30;;;1.00;99.90;;;;;;12555728;28;20049;-41
2022/02/26 07:06:35;;;;;;;24.77;4.00;;;1.10;99.90;;;;;;12551845;28;20052;-37
2022/02/26 07:12:38;;;;;;;33.03;4.70;;;1.20;99.90;;;;;;12549271;28;20672;-37
2022/02/26 07:18:43;;;;;;;26.30;3.75;;;1.20;99.90;;;;;;12535344;28;20056;-41
2022/02/26 07:24:46;;;;;;;39.90;7.53;;;1.30;99.90;;;;;;12550610;28;20143;-38
2022/02/26 07:30:52;;;;;;;20.85;3.53;;;1.40;99.90;;;;;;12549362;28;20057;-41
2022/02/26 07:36:54;;;;;;;33.35;5.95;;;1.50;99.90;;;;;;12552822;28;20571;-41
2022/02/26 07:42:57;;;;;;;26.70;4.03;;;1.70;99.90;;;;;;12548718;28;20225;-37
2022/02/26 07:48:59;;;;;;;19.63;4.10;;;1.80;99.90;;;;;;12552910;28;20048;-41
2022/02/26 07:55:03;;;;;;;33.78;4.43;;;2.00;99.90;;;;;;12547651;28;20059;-38
2022/02/26 08:01:05;;;;;;;19.08;3.83;;;2.10;99.90;;;;;;12547460;28;20036;-40
2022/02/26 08:07:07;;;;;;;28.33;3.88;;;2.30;99.90;;;;;;12548311;28;20097;-41
2022/02/26 08:13:09;;;;;;;22.45;3.67;;;2.50;99.90;;;;;;12542098;28;20048;-40
2022/02/26 08:19:11;;;;;;;21.00;4.15;;;2.60;99.90;;;;;;12524820;28;20045;-37
2022/02/26 08:25:13;;;;;;;22.45;3.70;;;2.70;99.90;;;;;;12541514;28;20424;-37
2022/02/26 08:31:15;;;;;;;19.40;3.85;;;3.00;99.90;;;;;;12544706;28;20049;-38
2022/02/26 08:37:17;;;;;;;23.63;3.83;;;3.10;99.90;;;;;;12550665;28;20131;-37
2022/02/26 08:43:21;;;;;;;23.55;4.40;;;3.20;99.90;;;;;;12545371;28;20052;-41
2022/02/26 08:49:23;;;;;;;20.27;4.32;;;3.40;99.90;;;;;;12528544;28;20068;-41
2022/02/26 08:55:25;;;;;;;15.63;4.07;;;3.70;99.90;;;;;;12547334;28;20122;-38
2022/02/26 09:01:27;;;;;;;18.58;3.90;;;4.00;99.90;;;;;;12534288;28;20041;-37
2022/02/26 09:07:29;;;;;;;26.83;4.80;;;3.90;99.90;;;;;;12528816;28;20139;-37
2022/02/26 09:13:31;;;;;;;13.25;2.72;;;4.10;99.90;;;;;;12533542;28;20118;-42
2022/02/26 09:19:33;;;;;;;17.88;3.63;;;4.20;99.90;;;;;;12532565;28;20132;-37
2022/02/26 09:25:36;;;;;;;15.82;3.65;;;4.20;99.90;;;;;;12530752;28;20567;-41
2022/02/26 09:31:41;;;;;;;20.05;4.20;;;4.50;99.90;;;;;;12538319;28;20496;-42
2022/02/26 09:37:43;;;;;;;21.67;3.72;;;4.40;99.90;;;;;;12539541;28;20040;-37
2022/02/26 09:43:44;;;;;;;15.43;3.10;;;4.40;99.90;;;;;;12540159;28;20090;-38
2022/02/26 09:49:48;;;;;;;21.98;3.40;;;4.90;99.90;;;;;;12538629;28;20107;-37
2022/02/26 09:55:52;;;;;;;23.25;3.53;;;5.20;99.90;;;;;;12541132;28;20049;-41
2022/02/26 10:02:00;;;;;;;18.83;3.60;;;5.10;99.90;;;;;;12537792;28;20334;-37
2022/02/26 10:08:18;;;;;;;22.83;3.63;;;5.20;99.90;;;;;;12543106;28;20041;-41
2022/02/26 10:14:20;;;;;;;15.85;2.90;;;5.10;99.90;;;;;;12535627;28;20134;-38
2022/02/26 10:20:23;;;;;;;23.33;3.50;;;5.30;99.90;;;;;;12539196;28;20154;-37
2022/02/26 10:26:30;;;;;;;20.00;3.30;;;5.50;99.90;;;;;;12541433;28;20053;-40
2022/02/26 10:32:32;;;;;;;23.92;3.42;;;6.10;99.90;;;;;;12539993;28;20045;-41
2022/02/26 10:38:35;;;;;;;21.65;3.50;;;6.20;99.90;;;;;;12538163;28;20535;-37
2022/02/26 10:44:37;;;;;;;14.18;3.35;;;6.70;99.90;;;;;;12536066;28;20136;-41
2022/02/26 10:50:39;;;;;;;20.50;3.30;;;6.80;99.90;;;;;;12535982;28;20051;-37
2022/02/26 10:56:44;;;;;;;20.17;2.92;;;7.00;99.90;;;;;;12538146;28;20056;-41
2022/02/26 11:02:46;;;;;;;17.00;2.58;;;7.20;99.90;;;;;;12536751;28;20135;-41
2022/02/26 11:08:50;;;;;;;18.10;2.42;;;7.60;99.90;;;;;;12541243;28;20084;-37
2022/02/26 11:14:58;;;;;;;14.30;2.40;;;7.70;99.90;;;;;;12535594;28;20048;-41
2022/02/26 11:21:00;;;;;;;10.95;2.38;;;8.10;99.90;;;;;;12537691;28;20406;-41
2022/02/26 11:27:07;;;;;;;13.13;2.03;;;7.90;99.90;;;;;;12520936;28;20056;-43
2022/02/26 11:33:10;;;;;;;12.98;2.58;;;7.10;99.90;;;;;;12536341;28;20044;-35
2022/02/26 11:39:41;;;;;;;10.18;1.90;;;6.80;99.90;;;;;;12534236;28;20063;-40
2022/02/26 11:45:43;;;;;;;16.90;2.70;;;7.40;99.90;;;;;;12534566;28;20144;-41
2022/02/26 11:51:47;;;;;;;20.75;3.05;;;7.50;99.90;;;;;;12534971;28;20053;-41
2022/02/26 11:57:50;;;;;;;15.45;2.22;;;7.80;99.90;;;;;;12537041;28;20093;-38
2022/02/26 12:03:54;;;;;;;14.70;2.70;;;7.80;99.90;;;;;;12532666;28;20082;-37
2022/02/26 12:10:05;;;;;;;11.85;2.13;;;7.90;99.90;;;;;;12537406;28;20094;-42
2022/02/26 12:16:16;;;;;;;16.90;3.28;;;8.00;99.90;;;;;;12537613;28;20045;-37
2022/02/26 12:22:18;;;;;;;13.00;2.28;;;8.30;99.90;;;;;;12535553;28;20041;-37
2022/02/26 12:28:23;;;;;;;11.68;1.77;;;8.20;99.90;;;;;;12537051;28;20057;-41
2022/02/26 12:34:28;;;;;;;10.35;1.60;;;8.70;99.90;;;;;;12534878;28;20053;-41
2022/02/26 12:40:34;;;;;;;11.85;1.80;;;8.70;99.90;;;;;;12533335;28;20641;-37
2022/02/26 12:46:38;;;;;;;17.85;2.40;;;8.80;99.90;;;;;;12537387;28;20481;-40
2022/02/26 12:52:41;;;;;;;11.38;1.60;;;8.60;99.90;;;;;;12531764;28;20053;-41
2022/02/26 12:58:43;;;;;;;13.65;1.67;;;8.70;99.90;;;;;;12534717;28;20537;-40
2022/02/26 13:04:45;;;;;;;12.38;1.98;;;8.60;99.90;;;;;;12528026;28;20044;-37
2022/02/26 13:10:51;;;;;;;13.85;2.03;;;8.60;99.90;;;;;;12532065;28;20082;-37
2022/02/26 13:17:02;;;;;;;11.60;2.25;;;8.30;99.90;;;;;;12532650;28;20056;-38
2022/02/26 13:23:07;;;;;;;7.75;1.70;;;8.00;99.90;;;;;;12529497;28;20044;-37
2022/02/26 13:29:13;;;;;;;9.25;1.83;;;8.30;99.90;;;;;;12533568;28;20060;-42
2022/02/26 13:35:17;;;;;;;11.30;2.00;;;8.20;99.90;;;;;;12533237;28;20461;-37
2022/02/26 13:41:23;;;;;;;10.52;1.58;;;8.10;99.90;;;;;;12530327;28;20057;-38
2022/02/26 13:47:25;;;;;;;16.58;2.78;;;8.10;99.90;;;;;;12535861;28;20102;-37
2022/02/26 13:53:27;;;;;;;12.85;2.30;;;7.90;99.90;;;;;;12525218;28;20056;-41
2022/02/26 13:59:29;;;;;;;16.73;2.53;;;7.80;99.90;;;;;;12510735;28;20053;-38
2022/02/26 14:05:33;;;;;;;8.90;1.70;;;7.70;99.90;;;;;;12529384;28;20049;-37
2022/02/26 14:11:35;;;;;;;11.50;2.42;;;7.70;99.90;;;;;;12529277;28;20049;-37
2022/02/26 14:17:39;;;;;;;13.18;2.17;;;7.60;99.90;;;;;;12535360;28;20205;-37
2022/02/26 14:23:41;;;;;;;13.17;1.90;;;7.70;99.90;;;;;;12541431;28;20052;-36
2022/02/26 14:29:44;;;;;;;13.23;2.08;;;7.70;99.90;;;;;;12534228;28;20928;-37
2022/02/26 14:35:46;;;;;;;11.73;1.80;;;7.50;99.90;;;;;;12539037;28;20083;-37
2022/02/26 14:41:48;;;;;;;17.88;3.35;;;7.30;99.90;;;;;;12536717;28;20132;-41
2022/02/26 14:47:52;;;;;;;9.27;1.40;;;7.50;99.90;;;;;;12539547;28;20480;-37
2022/02/26 14:53:54;;;;;;;11.55;1.95;;;7.40;99.90;;;;;;12534721;28;20157;-42
2022/02/26 14:59:56;;;;;;;9.30;1.73;;;7.30;99.90;;;;;;12538171;28;20128;-38
2022/02/26 15:05:58;;;;;;;12.00;1.50;;;7.30;99.90;;;;;;12540786;28;20068;-41
2022/02/26 15:12:00;;;;;;;9.55;1.75;;;7.30;99.90;;;;;;12537056;28;20052;-37
2022/02/26 15:18:03;;;;;;;6.93;1.40;;;7.10;99.90;;;;;;12541162;28;20612;-37
2022/02/26 15:24:06;;;;;;;6.40;1.15;;;7.30;99.90;;;;;;12534179;28;20048;-37
2022/02/26 15:30:08;;;;;;;7.72;2.00;;;7.20;99.90;;;;;;12536168;28;20497;-37
2022/02/26 15:36:12;;;;;;;10.00;1.58;;;7.10;99.90;;;;;;12541898;28;20049;-42
2022/02/26 15:42:14;;;;;;;9.60;1.60;;;7.00;99.90;;;;;;12540970;28;20142;-41
2022/02/26 15:48:19;;;;;;;10.02;1.90;;;7.00;99.90;;;;;;12542024;28;20333;-37
2022/02/26 15:54:21;;;;;;;10.45;1.65;;;6.80;99.90;;;;;;12534102;28;20048;-41
2022/02/26 16:00:24;;;;;;;7.38;1.40;;;6.80;99.90;;;;;;12534401;28;20048;-37
2022/02/26 16:06:26;;;;;;;9.40;1.55;;;6.90;99.90;;;;;;12539749;28;20470;-41
2022/02/26 16:12:34;;;;;;;8.35;1.25;;;6.70;99.90;;;;;;12540052;28;20048;-37
2022/02/26 16:18:36;;;;;;;12.23;1.50;;;6.40;99.90;;;;;;12540691;28;20132;-37
2022/02/26 16:24:38;;;;;;;9.85;1.80;;;6.30;99.90;;;;;;12532318;28;20048;-37
2022/02/26 16:30:41;;;;;;;15.15;2.40;;;6.00;99.90;;;;;;12532677;28;20095;-38
2022/02/26 16:36:43;;;;;;;7.85;1.67;;;5.70;99.90;;;;;;12537636;28;20773;-41
2022/02/26 16:42:46;;;;;;;9.10;2.10;;;5.40;99.90;;;;;;12535141;28;20282;-41
2022/02/26 16:48:48;;;;;;;10.50;1.90;;;5.20;99.90;;;;;;12538939;28;20052;-40
2022/02/26 16:54:50;;;;;;;9.52;2.35;;;5.20;99.90;;;;;;12534387;28;20049;-37
2022/02/26 17:00:53;;;;;;;11.73;2.70;;;5.10;99.90;;;;;;12535021;28;20080;-41
2022/02/26 17:06:56;;;;;;;11.50;2.50;;;4.90;99.90;;;;;;12533954;28;20049;-37
2022/02/26 17:12:59;;;;;;;13.00;2.20;;;4.80;99.90;;;;;;12534328;28;20091;-37
2022/02/26 17:19:00;;;;;;;15.55;5.40;;;4.60;99.90;;;;;;12538050;28;20156;-37
2022/02/26 17:25:02;;;;;;;15.38;2.88;;;4.50;99.90;;;;;;12533410;28;20061;-40
2022/02/26 17:31:06;;;;;;;13.40;4.18;;;4.30;99.90;;;;;;12532028;28;20098;-41
2022/02/26 17:37:08;;;;;;;17.33;4.45;;;4.00;99.90;;;;;;12533267;28;20075;-37
2022/02/26 17:43:11;;;;;;;21.55;5.20;;;3.80;99.90;;;;;;12535833;28;20573;-36
2022/02/26 17:49:13;;;;;;;20.20;5.90;;;3.60;99.90;;;;;;12537104;28;20567;-41
2022/02/26 17:55:15;;;;;;;14.65;4.05;;;3.70;99.90;;;;;;12540017;28;20148;-37
2022/02/26 18:01:18;;;;;;;12.35;3.70;;;3.70;99.90;;;;;;12540177;28;20503;-37
2022/02/26 18:07:21;;;;;;;14.95;4.10;;;3.50;99.90;;;;;;12541815;28;20551;-36
2022/02/26 18:13:22;;;;;;;13.52;3.97;;;3.30;99.90;;;;;;12539331;28;20448;-37
2022/02/26 18:19:24;;;;;;;15.30;4.25;;;3.40;99.90;;;;;;12539304;28;20044;-39
2022/02/26 18:25:27;;;;;;;15.93;3.88;;;3.30;99.90;;;;;;12538794;28;20144;-36
2022/02/26 18:31:30;;;;;;;16.33;3.55;;;3.20;99.90;;;;;;12538008;28;20480;-37
2022/02/26 18:37:33;;;;;;;14.63;3.50;;;3.00;99.90;;;;;;12540414;28;20102;-38
2022/02/26 18:43:37;;;;;;;11.93;3.30;;;2.90;99.90;;;;;;12539576;28;20615;-42
2022/02/26 18:49:39;;;;;;;12.57;3.88;;;2.70;99.90;;;;;;12541543;28;20070;-40
2022/02/26 18:55:41;;;;;;;7.28;2.78;;;2.70;99.90;;;;;;12536161;28;20048;-41
2022/02/26 19:01:43;;;;;;;14.70;3.72;;;2.70;99.90;;;;;;12536866;28;20067;-37
2022/02/26 19:07:45;;;;;;;14.73;4.38;;;2.60;99.90;;;;;;12538369;28;20124;-37
2022/02/26 19:13:47;;;;;;;13.35;4.15;;;2.60;99.90;;;;;;12534350;28;20136;-41
2022/02/26 19:19:49;;;;;;;10.00;3.67;;;2.50;99.90;;;;;;12538070;28;20049;-37
2022/02/26 19:25:51;;;;;;;13.18;3.60;;;2.40;99.90;;;;;;12535861;28;20508;-40
2022/02/26 19:31:53;;;;;;;12.18;3.33;;;2.60;99.90;;;;;;12537433;28;20060;-40
2022/02/26 19:37:55;;;;;;;14.80;3.15;;;2.50;99.90;;;;;;12535601;28;20076;-42
2022/02/26 19:43:57;;;;;;;14.27;4.30;;;2.40;99.90;;;;;;12539067;28;20040;-40
2022/02/26 19:50:00;;;;;;;19.27;5.32;;;2.30;99.90;;;;;;12539593;28;20167;-42
2022/02/26 19:56:02;;;;;;;14.65;4.15;;;2.20;99.90;;;;;;12539273;28;20085;-40
2022/02/26 20:02:04;;;;;;;19.35;4.90;;;2.20;99.90;;;;;;12533752;28;20044;-36
2022/02/26 20:08:09;;;;;;;19.73;5.07;;;2.10;99.90;;;;;;12534164;28;20045;-36
2022/02/26 20:14:11;;;;;;;22.35;9.73;;;2.20;99.90;;;;;;12529444;28;20466;-41
2022/02/26 20:20:13;;;;;;;54.72;22.38;;;2.00;99.90;;;;;;12535458;28;20049;-36
2022/02/26 20:26:15;;;;;;;13.52;6.90;;;1.90;99.90;;;;;;12536087;28;20136;-36
2022/02/26 20:32:17;;;;;;;20.85;6.13;;;2.00;99.90;;;;;;12534620;28;20094;-36
2022/02/26 20:38:19;;;;;;;20.05;6.38;;;2.20;99.90;;;;;;12533249;28;20056;-41
2022/02/26 20:44:20;;;;;;;20.45;5.25;;;2.30;99.90;;;;;;12538271;28;20094;-40
2022/02/26 20:50:23;;;;;;;25.92;8.55;;;2.30;99.90;;;;;;12537481;28;20124;-37
2022/02/26 20:56:26;;;;;;;17.77;6.13;;;2.00;99.90;;;;;;12532247;28;20056;-41
2022/02/26 21:02:28;;;;;;;17.65;6.90;;;2.10;99.90;;;;;;12532374;28;20071;-37
2022/02/26 21:08:30;;;;;;;15.57;4.35;;;2.00;99.90;;;;;;12536481;28;20061;-36
2022/02/26 21:14:32;;;;;;;10.70;4.30;;;2.10;99.90;;;;;;12531131;28;20136;-40
2022/02/26 21:20:36;;;;;;;12.70;4.72;;;2.00;99.90;;;;;;12532175;28;20061;-37
2022/02/26 21:26:37;;;;;;;16.98;4.97;;;1.80;99.90;;;;;;12541645;28;20061;-41
2022/02/26 21:32:40;;;;;;;20.20;5.57;;;1.70;99.90;;;;;;12547157;28;20144;-40
2022/02/26 21:38:41;;;;;;;11.93;3.50;;;1.70;99.90;;;;;;12545078;28;20048;-40
2022/02/26 21:44:43;;;;;;;15.38;5.45;;;1.60;99.90;;;;;;12545692;28;20055;-36
2022/02/26 21:50:45;;;;;;;20.85;6.38;;;1.40;99.90;;;;;;12542896;28;20382;-39
2022/02/26 21:56:48;;;;;;;15.52;5.70;;;1.20;99.90;;;;;;12544192;28;20049;-40
2022/02/26 22:02:50;;;;;;;32.28;14.00;;;1.20;99.90;;;;;;12543097;28;20394;-40
2022/02/26 22:08:52;;;;;;;46.60;19.48;;;1.20;99.90;;;;;;12541820;28;20048;-36
2022/02/26 22:14:57;;;;;;;15.85;5.78;;;1.20;99.90;;;;;;12540971;28;20060;-36
2022/02/26 22:20:59;;;;;;;15.98;4.50;;;1.40;99.90;;;;;;12542278;28;20044;-36
2022/02/26 22:27:01;;;;;;;18.58;4.38;;;1.40;99.90;;;;;;12541268;28;20060;-40
2022/02/26 22:33:05;;;;;;;29.05;5.30;;;1.50;99.90;;;;;;12538906;28;20048;-36
2022/02/26 22:39:10;;;;;;;15.32;4.03;;;1.40;99.90;;;;;;12524194;28;20488;-40
2022/02/26 22:45:13;;;;;;;15.07;3.88;;;1.40;99.90;;;;;;12542881;28;20080;-40
2022/02/26 22:51:15;;;;;;;11.30;3.55;;;1.60;99.90;;;;;;12539183;28;20420;-40
2022/02/26 22:57:34;;;;;;;16.10;4.28;;;1.50;99.90;;;;;;12544950;28;20086;-43
2022/02/26 23:03:37;;;;;;;14.43;4.38;;;1.40;99.90;;;;;;12537851;28;20045;-41
2022/02/26 23:09:40;;;;;;;20.00;5.65;;;1.30;99.90;;;;;;12542925;28;20048;-36
2022/02/26 23:15:43;;;;;;;16.90;4.38;;;1.50;99.90;;;;;;12537137;28;20053;-40
2022/02/26 23:21:45;;;;;;;15.48;3.72;;;1.90;99.90;;;;;;12537588;28;20072;-40
2022/02/26 23:27:47;;;;;;;18.50;4.07;;;1.90;99.90;;;;;;12539174;28;20164;-39
2022/02/26 23:33:49;;;;;;;13.88;3.55;;;1.80;99.90;;;;;;12520310;28;20131;-36
2022/02/26 23:39:51;;;;;;;14.13;3.17;;;1.80;99.90;;;;;;12526357;28;20052;-37
2022/02/26 23:45:53;;;;;;;13.38;4.28;;;1.80;99.90;;;;;;12537867;28;20048;-40
2022/02/26 23:51:55;;;;;;;15.00;3.67;;;1.70;99.90;;;;;;12539519;28;20044;-39
2022/02/26 23:57:58;;;;;;;14.07;3.90;;;1.60;99.90;;;;;;12538300;28;20086;-42
